sensor_id;sensor_type;location;lat;lon;timestamp;pressure;altitude;pressure_sealevel;temperature;humidity
71948;BME280;63257;55.082;38.772;2024-03-06T00:00:11;100826.88;;;-2.82;65.30
71948;BME280;63257;55.082;38.772;2024-03-06T00:02:37;100818.28;;;-2.81;65.43
71948;BME280;63257;55.082;38.772;2024-03-06T00:05:03;100833.81;;;-2.80;65.11
71948;BME280;63257;55.082;38.772;2024-03-06T00:07:30;100833.09;;;-2.69;64.83
71948;BME280;63257;55.082;38.772;2024-03-06T00:09:56;100844.28;;;-2.72;64.69
71948;BME280;63257;55.082;38.772;2024-03-06T00:12:22;100820.03;;;-2.80;64.53
71948;BME280;63257;55.082;38.772;2024-03-06T00:14:48;100818.34;;;-2.78;64.54
71948;BME280;63257;55.082;38.772;2024-03-06T00:17:14;100842.56;;;-2.71;64.98
71948;BME280;63257;55.082;38.772;2024-03-06T00:19:40;100832.97;;;-2.80;64.71
71948;BME280;63257;55.082;38.772;2024-03-06T00:22:05;100819.06;;;-2.87;64.96
71948;BME280;63257;55.082;38.772;2024-03-06T00:24:31;100836.56;;;-2.70;64.77
71948;BME280;63257;55.082;38.772;2024-03-06T00:26:58;100845.91;;;-2.77;64.58
71948;BME280;63257;55.082;38.772;2024-03-06T00:29:23;100844.78;;;-2.93;64.75
71948;BME280;63257;55.082;38.772;2024-03-06T00:31:49;100854.44;;;-2.83;64.80
71948;BME280;63257;55.082;38.772;2024-03-06T00:34:16;100839.81;;;-2.81;64.95
71948;BME280;63257;55.082;38.772;2024-03-06T00:36:44;100845.91;;;-2.79;64.40
71948;BME280;63257;55.082;38.772;2024-03-06T00:39:11;100856.22;;;-2.80;64.54
71948;BME280;63257;55.082;38.772;2024-03-06T00:41:39;100850.16;;;-2.81;64.16
71948;BME280;63257;55.082;38.772;2024-03-06T00:44:05;100859.50;;;-2.89;64.15
71948;BME280;63257;55.082;38.772;2024-03-06T00:46:31;100840.44;;;-2.96;64.50
71948;BME280;63257;55.082;38.772;2024-03-06T00:48:57;100840.31;;;-3.05;64.53
71948;BME280;63257;55.082;38.772;2024-03-06T00:51:23;100856.66;;;-3.04;65.11
71948;BME280;63257;55.082;38.772;2024-03-06T00:53:49;100830.59;;;-3.20;64.79
71948;BME280;63257;55.082;38.772;2024-03-06T00:56:14;100846.28;;;-3.09;64.69
71948;BME280;63257;55.082;38.772;2024-03-06T00:58:40;100850.91;;;-2.90;64.40
71948;BME280;63257;55.082;38.772;2024-03-06T01:01:06;100836.97;;;-2.99;64.12
71948;BME280;63257;55.082;38.772;2024-03-06T01:03:32;100854.44;;;-2.84;64.57
71948;BME280;63257;55.082;38.772;2024-03-06T01:05:58;100851.06;;;-2.80;64.24
71948;BME280;63257;55.082;38.772;2024-03-06T01:08:24;100853.63;;;-2.80;64.17
71948;BME280;63257;55.082;38.772;2024-03-06T01:10:52;100851.69;;;-2.94;63.94
71948;BME280;63257;55.082;38.772;2024-03-06T01:13:21;100857.63;;;-2.99;64.35
71948;BME280;63257;55.082;38.772;2024-03-06T01:15:47;100848.94;;;-3.04;64.35
71948;BME280;63257;55.082;38.772;2024-03-06T01:18:16;100849.81;;;-3.02;64.16
71948;BME280;63257;55.082;38.772;2024-03-06T01:20:42;100855.09;;;-2.96;64.01
71948;BME280;63257;55.082;38.772;2024-03-06T01:23:08;100840.38;;;-3.02;63.60
71948;BME280;63257;55.082;38.772;2024-03-06T01:25:34;100833.31;;;-3.11;63.44
71948;BME280;63257;55.082;38.772;2024-03-06T01:28:00;100846.34;;;-3.03;63.92
71948;BME280;63257;55.082;38.772;2024-03-06T01:30:26;100849.91;;;-2.98;63.15
71948;BME280;63257;55.082;38.772;2024-03-06T01:32:51;100825.66;;;-3.06;63.32
71948;BME280;63257;55.082;38.772;2024-03-06T01:35:18;100824.69;;;-3.11;62.87
71948;BME280;63257;55.082;38.772;2024-03-06T01:37:43;100855.94;;;-2.96;63.04
71948;BME280;63257;55.082;38.772;2024-03-06T01:40:10;100854.44;;;-2.84;62.96
71948;BME280;63257;55.082;38.772;2024-03-06T01:42:36;100860.50;;;-2.81;62.85
71948;BME280;63257;55.082;38.772;2024-03-06T01:45:03;100836.16;;;-2.97;62.55
71948;BME280;63257;55.082;38.772;2024-03-06T01:47:32;100850.19;;;-2.79;62.71
71948;BME280;63257;55.082;38.772;2024-03-06T01:49:59;100839.91;;;-2.76;62.71
71948;BME280;63257;55.082;38.772;2024-03-06T01:52:25;100860.78;;;-2.64;62.00
71948;BME280;63257;55.082;38.772;2024-03-06T01:54:51;100838.75;;;-2.95;61.97
71948;BME280;63257;55.082;38.772;2024-03-06T01:57:18;100833.69;;;-2.87;62.43
71948;BME280;63257;55.082;38.772;2024-03-06T01:59:45;100861.50;;;-2.71;62.20
71948;BME280;63257;55.082;38.772;2024-03-06T02:02:11;100853.75;;;-2.71;62.51
71948;BME280;63257;55.082;38.772;2024-03-06T02:04:37;100847.78;;;-2.68;62.38
71948;BME280;63257;55.082;38.772;2024-03-06T02:07:08;100864.91;;;-2.74;62.08
71948;BME280;63257;55.082;38.772;2024-03-06T02:09:36;100838.94;;;-2.84;62.18
71948;BME280;63257;55.082;38.772;2024-03-06T02:12:02;100845.00;;;-2.81;62.44
71948;BME280;63257;55.082;38.772;2024-03-06T02:14:29;100851.16;;;-2.71;62.38
71948;BME280;63257;55.082;38.772;2024-03-06T02:16:55;100864.03;;;-2.76;62.77
71948;BME280;63257;55.082;38.772;2024-03-06T02:19:21;100842.22;;;-2.92;63.18
71948;BME280;63257;55.082;38.772;2024-03-06T02:21:47;100845.72;;;-2.90;62.81
71948;BME280;63257;55.082;38.772;2024-03-06T02:24:13;100824.09;;;-2.95;63.13
71948;BME280;63257;55.082;38.772;2024-03-06T02:26:40;100858.13;;;-2.67;62.50
71948;BME280;63257;55.082;38.772;2024-03-06T02:29:06;100868.53;;;-2.64;62.87
71948;BME280;63257;55.082;38.772;2024-03-06T02:31:31;100861.47;;;-2.74;62.65
71948;BME280;63257;55.082;38.772;2024-03-06T02:33:58;100853.69;;;-2.77;63.12
71948;BME280;63257;55.082;38.772;2024-03-06T02:36:24;100876.28;;;-2.64;62.88
71948;BME280;63257;55.082;38.772;2024-03-06T02:38:50;100848.41;;;-2.83;62.90
71948;BME280;63257;55.082;38.772;2024-03-06T02:41:16;100844.19;;;-2.78;62.93
71948;BME280;63257;55.082;38.772;2024-03-06T02:43:43;100872.00;;;-2.60;62.89
71948;BME280;63257;55.082;38.772;2024-03-06T02:46:09;100857.13;;;-2.77;62.51
71948;BME280;63257;55.082;38.772;2024-03-06T02:48:35;100871.94;;;-2.66;62.64
71948;BME280;63257;55.082;38.772;2024-03-06T02:51:01;100879.72;;;-2.63;63.26
71948;BME280;63257;55.082;38.772;2024-03-06T02:53:27;100857.13;;;-2.75;62.52
71948;BME280;63257;55.082;38.772;2024-03-06T02:55:53;100889.13;;;-2.67;62.80
71948;BME280;63257;55.082;38.772;2024-03-06T02:58:19;100865.69;;;-2.79;62.66
71948;BME280;63257;55.082;38.772;2024-03-06T03:00:45;100860.53;;;-2.79;62.90
71948;BME280;63257;55.082;38.772;2024-03-06T03:03:11;100884.59;;;-2.82;62.67
71948;BME280;63257;55.082;38.772;2024-03-06T03:05:38;100888.94;;;-2.79;63.15
71948;BME280;63257;55.082;38.772;2024-03-06T03:08:05;100883.72;;;-2.82;63.08
71948;BME280;63257;55.082;38.772;2024-03-06T03:10:31;100893.22;;;-2.83;63.07
71948;BME280;63257;55.082;38.772;2024-03-06T03:13:01;100895.72;;;-2.86;63.11
71948;BME280;63257;55.082;38.772;2024-03-06T03:15:27;100893.13;;;-2.87;63.00
71948;BME280;63257;55.082;38.772;2024-03-06T03:17:53;100897.50;;;-2.82;63.08
71948;BME280;63257;55.082;38.772;2024-03-06T03:20:19;100868.72;;;-3.05;63.28
71948;BME280;63257;55.082;38.772;2024-03-06T03:22:44;100876.56;;;-2.99;63.26
71948;BME280;63257;55.082;38.772;2024-03-06T03:25:11;100893.88;;;-2.93;63.04
71948;BME280;63257;55.082;38.772;2024-03-06T03:27:38;100899.16;;;-2.87;63.25
71948;BME280;63257;55.082;38.772;2024-03-06T03:30:09;100893.91;;;-2.92;63.39
71948;BME280;63257;55.082;38.772;2024-03-06T03:32:36;100899.75;;;-3.03;63.93
71948;BME280;63257;55.082;38.772;2024-03-06T03:35:04;100907.59;;;-2.97;63.94
71948;BME280;63257;55.082;38.772;2024-03-06T03:37:31;100905.91;;;-2.95;64.46
71948;BME280;63257;55.082;38.772;2024-03-06T03:39:57;100901.78;;;-2.84;63.66
71948;BME280;63257;55.082;38.772;2024-03-06T03:42:23;100905.25;;;-2.82;63.36
71948;BME280;63257;55.082;38.772;2024-03-06T03:44:49;100888.88;;;-2.84;63.00
71948;BME280;63257;55.082;38.772;2024-03-06T03:47:15;100897.72;;;-2.69;62.77
71948;BME280;63257;55.082;38.772;2024-03-06T03:49:40;100910.78;;;-2.62;63.20
71948;BME280;63257;55.082;38.772;2024-03-06T03:52:06;100904.03;;;-2.52;62.60
71948;BME280;63257;55.082;38.772;2024-03-06T03:54:32;100909.97;;;-2.58;62.29
71948;BME280;63257;55.082;38.772;2024-03-06T03:56:58;100905.56;;;-2.63;62.65
71948;BME280;63257;55.082;38.772;2024-03-06T03:59:27;100916.66;;;-2.72;62.60
71948;BME280;63257;55.082;38.772;2024-03-06T04:01:53;100904.44;;;-2.81;63.06
71948;BME280;63257;55.082;38.772;2024-03-06T04:04:19;100916.66;;;-2.72;63.09
71948;BME280;63257;55.082;38.772;2024-03-06T04:06:46;100912.31;;;-2.73;63.27
71948;BME280;63257;55.082;38.772;2024-03-06T04:09:12;100902.75;;;-2.79;63.61
71948;BME280;63257;55.082;38.772;2024-03-06T04:11:40;100916.31;;;-2.92;65.31
71948;BME280;63257;55.082;38.772;2024-03-06T04:14:07;100911.00;;;-2.98;65.67
71948;BME280;63257;55.082;38.772;2024-03-06T04:16:34;100910.97;;;-3.00;66.74
71948;BME280;63257;55.082;38.772;2024-03-06T04:19:00;100907.53;;;-3.00;66.84
71948;BME280;63257;55.082;38.772;2024-03-06T04:21:27;100910.72;;;-3.15;67.97
71948;BME280;63257;55.082;38.772;2024-03-06T04:23:53;100888.63;;;-3.47;68.57
71948;BME280;63257;55.082;38.772;2024-03-06T04:26:19;100918.63;;;-3.52;69.26
71948;BME280;63257;55.082;38.772;2024-03-06T04:28:46;100913.19;;;-3.66;69.88
71948;BME280;63257;55.082;38.772;2024-03-06T04:31:12;100908.50;;;-3.85;70.25
71948;BME280;63257;55.082;38.772;2024-03-06T04:33:41;100896.19;;;-3.97;70.75
71948;BME280;63257;55.082;38.772;2024-03-06T04:36:07;100919.38;;;-3.99;71.21
71948;BME280;63257;55.082;38.772;2024-03-06T04:38:34;100935.50;;;-4.09;71.85
71948;BME280;63257;55.082;38.772;2024-03-06T04:41:00;100931.91;;;-4.16;72.26
71948;BME280;63257;55.082;38.772;2024-03-06T04:43:26;100926.47;;;-4.28;72.58
71948;BME280;63257;55.082;38.772;2024-03-06T04:45:52;100914.94;;;-4.44;72.79
71948;BME280;63257;55.082;38.772;2024-03-06T04:48:18;100928.75;;;-4.42;72.65
71948;BME280;63257;55.082;38.772;2024-03-06T04:50:43;100915.31;;;-4.64;73.23
71948;BME280;63257;55.082;38.772;2024-03-06T04:53:10;100920.66;;;-4.57;73.13
71948;BME280;63257;55.082;38.772;2024-03-06T04:55:37;100926.47;;;-4.65;73.52
71948;BME280;63257;55.082;38.772;2024-03-06T04:58:03;100923.59;;;-4.77;73.21
71948;BME280;63257;55.082;38.772;2024-03-06T05:00:30;100906.00;;;-4.94;73.10
71948;BME280;63257;55.082;38.772;2024-03-06T05:02:56;100935.34;;;-4.87;72.49
71948;BME280;63257;55.082;38.772;2024-03-06T05:05:22;100905.66;;;-5.07;73.18
71948;BME280;63257;55.082;38.772;2024-03-06T05:07:48;100933.38;;;-4.99;72.72
71948;BME280;63257;55.082;38.772;2024-03-06T05:10:14;100938.38;;;-5.03;73.10
71948;BME280;63257;55.082;38.772;2024-03-06T05:12:42;100928.47;;;-5.21;73.38
71948;BME280;63257;55.082;38.772;2024-03-06T05:15:09;100942.91;;;-5.26;73.82
71948;BME280;63257;55.082;38.772;2024-03-06T05:17:35;100919.19;;;-5.48;73.75
71948;BME280;63257;55.082;38.772;2024-03-06T05:20:01;100907.00;;;-5.54;74.18
71948;BME280;63257;55.082;38.772;2024-03-06T05:22:31;100928.84;;;-5.39;73.77
71948;BME280;63257;55.082;38.772;2024-03-06T05:24:57;100938.28;;;-5.40;73.13
71948;BME280;63257;55.082;38.772;2024-03-06T05:27:25;100904.34;;;-5.57;73.54
71948;BME280;63257;55.082;38.772;2024-03-06T05:29:52;100919.81;;;-5.55;73.11
71948;BME280;63257;55.082;38.772;2024-03-06T05:32:18;100942.19;;;-5.53;73.90
71948;BME280;63257;55.082;38.772;2024-03-06T05:34:45;100928.50;;;-5.52;73.53
71948;BME280;63257;55.082;38.772;2024-03-06T05:37:11;100946.28;;;-5.59;73.76
71948;BME280;63257;55.082;38.772;2024-03-06T05:39:37;100947.03;;;-5.64;73.10
71948;BME280;63257;55.082;38.772;2024-03-06T05:42:04;100913.03;;;-5.84;73.49
71948;BME280;63257;55.082;38.772;2024-03-06T05:44:31;100942.06;;;-5.88;73.42
71948;BME280;63257;55.082;38.772;2024-03-06T05:46:58;100910.81;;;-6.02;74.27
71948;BME280;63257;55.082;38.772;2024-03-06T05:49:24;100937.59;;;-5.93;74.36
71948;BME280;63257;55.082;38.772;2024-03-06T05:51:51;100925.59;;;-5.93;74.07
71948;BME280;63257;55.082;38.772;2024-03-06T05:54:19;100921.00;;;-6.05;74.48
71948;BME280;63257;55.082;38.772;2024-03-06T05:56:47;100921.16;;;-6.00;74.63
71948;BME280;63257;55.082;38.772;2024-03-06T05:59:13;100924.41;;;-6.06;74.14
71948;BME280;63257;55.082;38.772;2024-03-06T06:01:40;100952.28;;;-5.89;74.16
71948;BME280;63257;55.082;38.772;2024-03-06T06:04:05;100951.50;;;-5.87;73.78
71948;BME280;63257;55.082;38.772;2024-03-06T06:06:31;100960.13;;;-5.85;73.44
71948;BME280;63257;55.082;38.772;2024-03-06T06:08:57;100940.19;;;-5.93;73.14
71948;BME280;63257;55.082;38.772;2024-03-06T06:11:23;100925.53;;;-5.98;73.55
71948;BME280;63257;55.082;38.772;2024-03-06T06:13:48;100949.19;;;-5.77;73.17
71948;BME280;63257;55.082;38.772;2024-03-06T06:16:14;100926.59;;;-5.89;73.13
71948;BME280;63257;55.082;38.772;2024-03-06T06:18:40;100928.41;;;-5.85;72.46
71948;BME280;63257;55.082;38.772;2024-03-06T06:21:08;100955.00;;;-5.85;72.42
71948;BME280;63257;55.082;38.772;2024-03-06T06:23:34;100929.91;;;-5.93;72.70
71948;BME280;63257;55.082;38.772;2024-03-06T06:26:01;100953.47;;;-5.78;72.16
71948;BME280;63257;55.082;38.772;2024-03-06T06:28:27;100951.13;;;-5.70;72.15
71948;BME280;63257;55.082;38.772;2024-03-06T06:30:53;100931.88;;;-5.83;71.99
71948;BME280;63257;55.082;38.772;2024-03-06T06:33:19;100926.97;;;-5.75;71.38
71948;BME280;63257;55.082;38.772;2024-03-06T06:35:47;100959.19;;;-5.58;71.34
71948;BME280;63257;55.082;38.772;2024-03-06T06:38:13;100963.66;;;-5.52;70.56
71948;BME280;63257;55.082;38.772;2024-03-06T06:40:39;100955.19;;;-5.48;70.65
71948;BME280;63257;55.082;38.772;2024-03-06T06:43:08;100960.50;;;-5.42;69.75
71948;BME280;63257;55.082;38.772;2024-03-06T06:45:34;100964.91;;;-5.38;69.44
71948;BME280;63257;55.082;38.772;2024-03-06T06:47:59;100962.97;;;-5.47;70.10
71948;BME280;63257;55.082;38.772;2024-03-06T06:50:25;100966.75;;;-5.34;69.69
71948;BME280;63257;55.082;38.772;2024-03-06T06:52:52;100943.91;;;-5.53;69.39
71948;BME280;63257;55.082;38.772;2024-03-06T06:55:18;100963.19;;;-5.37;68.95
71948;BME280;63257;55.082;38.772;2024-03-06T06:57:49;100966.00;;;-5.30;68.93
71948;BME280;63257;55.082;38.772;2024-03-06T07:00:15;100966.19;;;-5.23;68.51
71948;BME280;63257;55.082;38.772;2024-03-06T07:02:44;100942.56;;;-5.39;67.73
71948;BME280;63257;55.082;38.772;2024-03-06T07:05:11;100961.19;;;-5.17;68.18
71948;BME280;63257;55.082;38.772;2024-03-06T07:07:37;100972.59;;;-5.07;67.75
71948;BME280;63257;55.082;38.772;2024-03-06T07:10:07;100966.66;;;-5.05;67.64
71948;BME280;63257;55.082;38.772;2024-03-06T07:12:35;100967.53;;;-5.04;67.22
71948;BME280;63257;55.082;38.772;2024-03-06T07:15:01;100968.41;;;-5.04;67.07
71948;BME280;63257;55.082;38.772;2024-03-06T07:17:30;100945.06;;;-5.10;66.53
71948;BME280;63257;55.082;38.772;2024-03-06T07:19:56;100959.94;;;-5.00;66.25
71948;BME280;63257;55.082;38.772;2024-03-06T07:22:22;100970.53;;;-4.89;66.06
71948;BME280;63257;55.082;38.772;2024-03-06T07:24:48;100968.81;;;-4.88;66.04
71948;BME280;63257;55.082;38.772;2024-03-06T07:27:14;100972.50;;;-4.79;65.69
71948;BME280;63257;55.082;38.772;2024-03-06T07:29:40;100971.91;;;-4.68;65.27
71948;BME280;63257;55.082;38.772;2024-03-06T07:32:06;100948.97;;;-4.92;65.13
71948;BME280;63257;55.082;38.772;2024-03-06T07:34:33;100977.16;;;-4.64;65.06
71948;BME280;63257;55.082;38.772;2024-03-06T07:36:59;100981.56;;;-4.60;64.38
71948;BME280;63257;55.082;38.772;2024-03-06T07:39:25;100965.13;;;-4.63;64.11
71948;BME280;63257;55.082;38.772;2024-03-06T07:41:51;100981.94;;;-4.44;64.24
71948;BME280;63257;55.082;38.772;2024-03-06T07:44:18;100966.56;;;-4.41;63.12
71948;BME280;63257;55.082;38.772;2024-03-06T07:46:43;100961.44;;;-4.39;62.46
71948;BME280;63257;55.082;38.772;2024-03-06T07:49:09;100977.25;;;-4.26;60.31
71948;BME280;63257;55.082;38.772;2024-03-06T07:51:35;100931.44;;;-4.36;61.42
71948;BME280;63257;55.082;38.772;2024-03-06T07:54:01;100953.34;;;-4.18;59.86
71948;BME280;63257;55.082;38.772;2024-03-06T07:56:29;100957.31;;;-3.95;59.53
71948;BME280;63257;55.082;38.772;2024-03-06T07:58:56;100975.00;;;-3.72;59.08
71948;BME280;63257;55.082;38.772;2024-03-06T08:01:22;100958.63;;;-3.72;58.92
71948;BME280;63257;55.082;38.772;2024-03-06T08:03:48;100974.47;;;-3.57;59.09
71948;BME280;63257;55.082;38.772;2024-03-06T08:06:14;100971.16;;;-3.50;58.18
71948;BME280;63257;55.082;38.772;2024-03-06T08:08:45;100967.75;;;-3.49;57.96
71948;BME280;63257;55.082;38.772;2024-03-06T08:11:11;100965.38;;;-3.38;57.33
71948;BME280;63257;55.082;38.772;2024-03-06T08:13:38;100965.75;;;-3.19;56.47
71948;BME280;63257;55.082;38.772;2024-03-06T08:16:07;100950.38;;;-3.13;56.64
71948;BME280;63257;55.082;38.772;2024-03-06T08:18:34;100943.63;;;-3.05;56.11
71948;BME280;63257;55.082;38.772;2024-03-06T08:21:01;100974.81;;;-2.94;55.27
71948;BME280;63257;55.082;38.772;2024-03-06T08:23:29;100965.47;;;-2.86;55.56
71948;BME280;63257;55.082;38.772;2024-03-06T08:25:56;100964.88;;;-2.71;55.44
71948;BME280;63257;55.082;38.772;2024-03-06T08:28:22;100929.66;;;-2.66;54.24
71948;BME280;63257;55.082;38.772;2024-03-06T08:30:48;100970.47;;;-2.46;52.83
71948;BME280;63257;55.082;38.772;2024-03-06T08:33:14;100965.78;;;-2.15;52.59
71948;BME280;63257;55.082;38.772;2024-03-06T08:35:41;100960.81;;;-2.01;52.12
71948;BME280;63257;55.082;38.772;2024-03-06T08:38:07;100965.38;;;-1.83;51.81
71948;BME280;63257;55.082;38.772;2024-03-06T08:40:34;100942.28;;;-1.68;51.75
71948;BME280;63257;55.082;38.772;2024-03-06T08:43:00;100932.84;;;-1.66;51.46
71948;BME280;63257;55.082;38.772;2024-03-06T08:45:26;100958.06;;;-1.49;50.54
71948;BME280;63257;55.082;38.772;2024-03-06T08:47:52;100951.53;;;-1.18;50.49
71948;BME280;63257;55.082;38.772;2024-03-06T08:50:20;100948.25;;;-1.03;50.60
71948;BME280;63257;55.082;38.772;2024-03-06T08:52:46;100959.44;;;-1.06;49.36
71948;BME280;63257;55.082;38.772;2024-03-06T08:55:12;100958.78;;;-0.81;49.38
71948;BME280;63257;55.082;38.772;2024-03-06T08:57:38;100938.19;;;-0.68;48.27
71948;BME280;63257;55.082;38.772;2024-03-06T09:00:06;100956.75;;;-0.16;47.63
71948;BME280;63257;55.082;38.772;2024-03-06T09:02:37;100933.34;;;-0.26;47.68
71948;BME280;63257;55.082;38.772;2024-03-06T09:05:07;100908.13;;;-0.45;47.83
71948;BME280;63257;55.082;38.772;2024-03-06T09:07:34;100949.09;;;0.05;47.58
71948;BME280;63257;55.082;38.772;2024-03-06T09:10:04;100950.19;;;0.44;47.03
71948;BME280;63257;55.082;38.772;2024-03-06T09:12:31;100929.34;;;0.37;45.73
71948;BME280;63257;55.082;38.772;2024-03-06T09:14:57;100939.78;;;0.46;47.11
71948;BME280;63257;55.082;38.772;2024-03-06T09:17:22;100917.25;;;0.39;46.31
71948;BME280;63257;55.082;38.772;2024-03-06T09:19:48;100945.03;;;0.61;46.83
71948;BME280;63257;55.082;38.772;2024-03-06T09:22:14;100953.78;;;0.97;46.44
71948;BME280;63257;55.082;38.772;2024-03-06T09:24:40;100943.38;;;0.74;46.46
71948;BME280;63257;55.082;38.772;2024-03-06T09:27:06;100949.41;;;0.70;46.24
71948;BME280;63257;55.082;38.772;2024-03-06T09:29:31;100916.38;;;0.37;47.07
71948;BME280;63257;55.082;38.772;2024-03-06T09:31:57;100925.94;;;0.50;46.47
71948;BME280;63257;55.082;38.772;2024-03-06T09:34:24;100919.09;;;0.77;46.76
71948;BME280;63257;55.082;38.772;2024-03-06T09:36:50;100925.19;;;0.97;45.56
71948;BME280;63257;55.082;38.772;2024-03-06T09:39:18;100916.53;;;0.88;46.62
71948;BME280;63257;55.082;38.772;2024-03-06T09:41:53;100915.66;;;0.93;46.70
71948;BME280;63257;55.082;38.772;2024-03-06T09:44:20;100906.13;;;0.81;46.75
71948;BME280;63257;55.082;38.772;2024-03-06T09:46:48;100915.69;;;0.99;45.14
71948;BME280;63257;55.082;38.772;2024-03-06T09:49:17;100906.13;;;0.80;47.19
71948;BME280;63257;55.082;38.772;2024-03-06T09:51:47;100925.19;;;0.79;46.31
71948;BME280;63257;55.082;38.772;2024-03-06T09:54:15;100899.19;;;0.76;46.20
71948;BME280;63257;55.082;38.772;2024-03-06T09:56:42;100918.31;;;1.07;46.12
71948;BME280;63257;55.082;38.772;2024-03-06T09:59:09;100919.16;;;0.95;46.11
71948;BME280;63257;55.082;38.772;2024-03-06T10:01:40;100926.84;;;0.64;47.11
71948;BME280;63257;55.082;38.772;2024-03-06T10:04:26;100907.81;;;0.62;46.71
71948;BME280;63257;55.082;38.772;2024-03-06T10:06:55;100919.97;;;0.80;47.68
71948;BME280;63257;55.082;38.772;2024-03-06T10:09:21;100930.38;;;0.83;47.30
71948;BME280;63257;55.082;38.772;2024-03-06T10:11:47;100895.69;;;0.75;47.36
71948;BME280;63257;55.082;38.772;2024-03-06T10:14:13;100921.56;;;0.38;47.02
71948;BME280;63257;55.082;38.772;2024-03-06T10:17:00;100924.25;;;0.63;47.69
71948;BME280;63257;55.082;38.772;2024-03-06T10:19:27;100906.94;;;0.68;46.80
71948;BME280;63257;55.082;38.772;2024-03-06T10:21:57;100904.38;;;0.74;46.62
71948;BME280;63257;55.082;38.772;2024-03-06T10:24:26;100910.38;;;0.56;47.12
71948;BME280;63257;55.082;38.772;2024-03-06T10:26:54;100917.34;;;0.63;48.22
71948;BME280;63257;55.082;38.772;2024-03-06T10:29:22;100922.53;;;0.66;48.10
71948;BME280;63257;55.082;38.772;2024-03-06T10:31:56;100893.78;;;0.22;47.72
71948;BME280;63257;55.082;38.772;2024-03-06T10:34:24;100923.34;;;0.55;47.43
71948;BME280;63257;55.082;38.772;2024-03-06T10:36:59;100892.19;;;0.55;47.29
71948;BME280;63257;55.082;38.772;2024-03-06T10:39:25;100895.66;;;0.54;46.57
71948;BME280;63257;55.082;38.772;2024-03-06T10:41:56;100914.78;;;0.80;46.67
71948;BME280;63257;55.082;38.772;2024-03-06T10:44:23;100905.16;;;0.53;47.15
71948;BME280;63257;55.082;38.772;2024-03-06T10:46:59;100918.16;;;0.55;47.78
71948;BME280;63257;55.082;38.772;2024-03-06T10:49:27;100886.97;;;0.53;47.58
71948;BME280;63257;55.082;38.772;2024-03-06T10:52:04;100883.59;;;0.85;47.48
71948;BME280;63257;55.082;38.772;2024-03-06T10:54:35;100900.94;;;0.94;46.21
71948;BME280;63257;55.082;38.772;2024-03-06T10:57:05;100911.28;;;0.74;47.03
71948;BME280;63257;55.082;38.772;2024-03-06T10:59:32;100914.66;;;0.46;45.86
71948;BME280;63257;55.082;38.772;2024-03-06T11:01:59;100911.25;;;0.60;47.48
71948;BME280;63257;55.082;38.772;2024-03-06T11:04:29;100919.88;;;0.48;46.46
71948;BME280;63257;55.082;38.772;2024-03-06T11:07:05;100880.00;;;0.40;46.83
71948;BME280;63257;55.082;38.772;2024-03-06T11:09:37;100880.03;;;0.44;46.64
71948;BME280;63257;55.082;38.772;2024-03-06T11:12:07;100900.91;;;0.71;46.55
71948;BME280;63257;55.082;38.772;2024-03-06T11:14:37;100909.50;;;0.59;47.02
71948;BME280;63257;55.082;38.772;2024-03-06T11:19:31;100901.78;;;0.83;45.38
71948;BME280;63257;55.082;38.772;2024-03-06T11:21:58;100882.72;;;0.69;46.63
71948;BME280;63257;55.082;38.772;2024-03-06T11:24:34;100888.78;;;0.82;46.46
71948;BME280;63257;55.082;38.772;2024-03-06T11:27:02;100894.00;;;0.74;44.58
71948;BME280;63257;55.082;38.772;2024-03-06T11:30:04;100869.63;;;0.38;44.91
71948;BME280;63257;55.082;38.772;2024-03-06T11:32:37;100866.13;;;0.31;45.90
71948;BME280;63257;55.082;38.772;2024-03-06T11:35:04;100862.66;;;0.31;45.90
71948;BME280;63257;55.082;38.772;2024-03-06T11:37:34;100887.03;;;0.58;45.78
71948;BME280;63257;55.082;38.772;2024-03-06T11:40:00;100882.69;;;0.74;45.59
71948;BME280;63257;55.082;38.772;2024-03-06T11:42:33;100868.81;;;0.68;44.02
71948;BME280;63257;55.082;38.772;2024-03-06T11:45:12;100867.97;;;0.71;45.07
71948;BME280;63257;55.082;38.772;2024-03-06T11:48:01;100885.31;;;0.89;45.69
71948;BME280;63257;55.082;38.772;2024-03-06T11:50:28;100881.03;;;1.14;45.31
71948;BME280;63257;55.082;38.772;2024-03-06T11:52:58;100887.09;;;1.04;44.15
71948;BME280;63257;55.082;38.772;2024-03-06T11:55:24;100879.31;;;1.10;44.30
71948;BME280;63257;55.082;38.772;2024-03-06T11:57:53;100874.88;;;0.63;44.33
71948;BME280;63257;55.082;38.772;2024-03-06T12:00:23;100882.75;;;1.00;44.26
71948;BME280;63257;55.082;38.772;2024-03-06T12:02:52;100873.19;;;0.74;44.20
71948;BME280;63257;55.082;38.772;2024-03-06T12:05:18;100858.41;;;0.55;43.83
71948;BME280;63257;55.082;38.772;2024-03-06T12:07:50;100876.66;;;0.89;44.27
71948;BME280;63257;55.082;38.772;2024-03-06T12:10:17;100896.59;;;0.94;42.98
71948;BME280;63257;55.082;38.772;2024-03-06T12:12:44;100871.44;;;0.76;42.21
71948;BME280;63257;55.082;38.772;2024-03-06T12:15:11;100875.78;;;0.85;43.08
71948;BME280;63257;55.082;38.772;2024-03-06T12:17:49;100868.88;;;1.50;41.25
71948;BME280;63257;55.082;38.772;2024-03-06T12:20:17;100859.34;;;1.54;40.39
71948;BME280;63257;55.082;38.772;2024-03-06T12:22:51;100884.44;;;1.84;40.45
71948;BME280;63257;55.082;38.772;2024-03-06T12:25:21;100849.81;;;1.51;40.55
71948;BME280;63257;55.082;38.772;2024-03-06T12:27:48;100873.22;;;1.53;40.80
71948;BME280;63257;55.082;38.772;2024-03-06T12:30:22;100842.88;;;1.35;41.16
71948;BME280;63257;55.082;38.772;2024-03-06T12:33:01;100867.97;;;1.85;40.76
71948;BME280;63257;55.082;38.772;2024-03-06T12:35:31;100845.47;;;1.35;40.29
71948;BME280;63257;55.082;38.772;2024-03-06T12:37:57;100871.44;;;1.66;39.79
71948;BME280;63257;55.082;38.772;2024-03-06T12:40:24;100870.59;;;1.65;39.51
71948;BME280;63257;55.082;38.772;2024-03-06T12:42:50;100842.88;;;1.40;39.44
71948;BME280;63257;55.082;38.772;2024-03-06T12:45:18;100850.59;;;1.88;39.85